Time;durP1;ratioP1;P1;durP2;ratioP2;P2;SDS_P1;SDS_P2;PMS_P1;PMS_P2;Temp;Humidity;BMP_temperature;BMP_pressure;BME280_temperature;BME280_humidity;BME280_pressure;Samples;Min_cycle;Max_cycle;Signal;HPM_P1;HPM_P2
2022/10/15 00:00:26;;;;;;;6.60;3.25;;;;;;;12.49;100.00;98513.47;5034638;28;20257;-57
2022/10/15 00:02:51;;;;;;;6.97;2.97;;;;;;;12.64;100.00;98512.31;5034602;28;20233;-57
2022/10/15 00:05:17;;;;;;;5.63;3.53;;;;;;;12.61;100.00;98520.34;5034405;28;20175;-57
2022/10/15 00:07:42;;;;;;;3.75;3.17;;;;;;;12.66;100.00;98515.66;5034258;28;20238;-57
2022/10/15 00:10:08;;;;;;;8.32;3.35;;;;;;;12.53;100.00;98507.09;5034465;28;20240;-57
2022/10/15 00:12:34;;;;;;;8.40;3.00;;;;;;;12.53;100.00;98505.34;5034197;28;20194;-57
2022/10/15 00:15:00;;;;;;;4.43;2.90;;;;;;;12.61;100.00;98505.59;5034172;28;20242;-57
2022/10/15 00:17:25;;;;;;;3.97;3.00;;;;;;;12.68;100.00;98503.38;5034157;28;20178;-57
2022/10/15 00:19:50;;;;;;;6.03;3.05;;;;;;;12.73;100.00;98499.47;5034646;28;20261;-57
2022/10/15 00:22:16;;;;;;;5.30;3.40;;;;;;;12.69;100.00;98502.41;5033917;28;20186;-57
2022/10/15 00:24:41;;;;;;;3.78;2.92;;;;;;;12.69;100.00;98479.06;5034248;28;20178;-57
2022/10/15 00:27:07;;;;;;;3.20;2.83;;;;;;;12.63;100.00;98495.09;5034222;28;20175;-57
2022/10/15 00:29:32;;;;;;;4.30;2.83;;;;;;;12.69;100.00;98489.44;5034427;28;20202;-57
2022/10/15 00:31:58;;;;;;;3.47;3.17;;;;;;;12.72;100.00;98494.41;5033780;28;20170;-57
2022/10/15 00:34:23;;;;;;;3.20;2.90;;;;;;;12.73;100.00;98491.69;5033781;28;20281;-57
2022/10/15 00:36:50;;;;;;;7.07;3.80;;;;;;;12.64;100.00;98489.78;5034072;28;20178;-57
2022/10/15 00:39:15;;;;;;;4.10;2.92;;;;;;;12.63;100.00;98484.72;5032498;28;20170;-57
2022/10/15 00:41:44;;;;;;;4.28;2.97;;;;;;;12.65;100.00;98498.41;5033729;28;20181;-56
2022/10/15 00:44:21;;;;;;;5.40;2.95;;;;;;;12.65;100.00;98490.63;5033832;28;20178;-57
2022/10/15 00:46:50;;;;;;;4.22;3.15;;;;;;;12.71;100.00;98488.38;5033621;28;20181;-57
2022/10/15 00:49:25;;;;;;;5.70;3.00;;;;;;;12.74;100.00;98495.94;5033748;28;20170;-57
2022/10/15 00:51:56;;;;;;;6.18;2.92;;;;;;;12.71;100.00;98482.38;5033763;28;20694;-57
2022/10/15 00:54:23;;;;;;;5.07;3.30;;;;;;;12.74;100.00;98487.31;5033536;28;20178;-57
2022/10/15 00:56:49;;;;;;;4.18;3.13;;;;;;;12.76;100.00;98485.44;5033618;28;20671;-57
2022/10/15 00:59:17;;;;;;;4.25;3.85;;;;;;;12.79;100.00;98485.22;5033366;28;20178;-57
2022/10/15 01:01:43;;;;;;;4.13;3.83;;;;;;;12.89;100.00;98486.16;5033585;28;20182;-57
2022/10/15 01:04:10;;;;;;;6.68;4.43;;;;;;;12.97;100.00;98484.66;5033243;28;20253;-57
2022/10/15 01:06:36;;;;;;;6.07;4.80;;;;;;;13.01;100.00;98487.84;5033468;28;20221;-57
2022/10/15 01:09:02;;;;;;;6.63;4.50;;;;;;;12.98;100.00;98480.28;5033142;28;20202;-57
2022/10/15 01:12:05;;;;;;;5.18;4.57;;;;;;;12.73;100.00;98485.66;5033350;28;20178;-57
2022/10/15 01:15:02;;;;;;;6.65;5.15;;;;;;;12.53;100.00;98481.13;5011902;28;20175;-57
2022/10/15 01:17:49;;;;;;;7.95;4.70;;;;;;;12.49;100.00;98474.56;5028733;28;20202;-57
2022/10/15 01:20:52;;;;;;;6.00;4.63;;;;;;;12.49;100.00;98474.56;5033236;28;20650;-57
2022/10/15 01:23:44;;;;;;;4.38;3.92;;;;;;;12.61;100.00;98478.81;5032793;28;20194;-57
2022/10/15 01:26:28;;;;;;;4.30;3.45;;;;;;;12.77;100.00;98477.53;5033140;28;20289;-56
2022/10/15 01:29:35;;;;;;;3.60;3.30;;;;;;;12.82;100.00;98474.56;5033059;28;20170;-57
2022/10/15 01:32:11;;;;;;;6.22;3.60;;;;;;;12.77;100.00;98474.13;5032584;28;20258;-57
2022/10/15 01:35:03;;;;;;;4.55;3.10;;;;;;;12.86;100.00;98476.00;5032948;28;20192;-57
2022/10/15 01:37:47;;;;;;;3.58;2.90;;;;;;;12.95;100.00;98478.75;5033198;28;20170;-56
2022/10/15 01:40:30;;;;;;;4.38;3.60;;;;;;;12.99;100.00;98481.94;5032609;28;20182;-57
2022/10/15 01:42:57;;;;;;;4.47;3.00;;;;;;;13.12;100.00;98475.69;5032810;28;20612;-57
2022/10/15 01:45:47;;;;;;;4.85;3.15;;;;;;;13.23;100.00;98485.22;5032723;28;20178;-57
2022/10/15 01:48:13;;;;;;;5.28;3.00;;;;;;;13.23;100.00;98486.06;5032411;28;20674;-57
2022/10/15 01:50:45;;;;;;;4.80;3.03;;;;;;;13.19;100.00;98482.03;5032431;28;20178;-57
2022/10/15 01:53:16;;;;;;;3.78;3.35;;;;;;;13.15;100.00;98483.25;5031935;28;20671;-57
2022/10/15 01:55:44;;;;;;;6.95;3.05;;;;;;;13.21;100.00;98497.50;5032344;28;20163;-57
2022/10/15 01:58:11;;;;;;;3.97;3.42;;;;;;;13.32;100.00;98497.50;5032287;28;20181;-57
2022/10/15 02:00:40;;;;;;;3.20;2.95;;;;;;;13.37;100.00;98492.78;5032550;28;20181;-57
2022/10/15 02:03:06;;;;;;;5.72;3.35;;;;;;;13.36;100.00;98498.94;5032559;28;20212;-57
2022/10/15 02:05:46;;;;;;;3.72;3.38;;;;;;;13.41;100.00;98502.00;5032232;28;20755;-57
2022/10/15 02:08:38;;;;;;;3.35;3.05;;;;;;;13.58;100.00;98496.28;5032336;28;20158;-57
2022/10/15 02:11:10;;;;;;;8.18;4.00;;;;;;;13.65;100.00;98492.25;5032416;28;20166;-57
2022/10/15 02:14:10;;;;;;;4.47;3.75;;;;;;;13.22;100.00;98484.41;5032327;28;20568;-57
2022/10/15 02:17:10;;;;;;;5.40;3.85;;;;;;;13.17;100.00;98493.50;5020613;28;20248;-57
2022/10/15 02:19:50;;;;;;;6.50;3.63;;;;;;;13.09;100.00;98490.69;5027773;28;20254;-57
2022/10/15 02:22:31;;;;;;;5.55;3.35;;;;;;;13.05;100.00;98484.06;5032014;28;20190;-57
2022/10/15 02:25:27;;;;;;;5.25;3.92;;;;;;;13.07;100.00;98495.97;5032298;28;20686;-57
2022/10/15 02:27:55;;;;;;;7.95;3.83;;;;;;;12.90;100.00;98487.81;5027586;28;20269;-57
2022/10/15 02:30:23;;;;;;;5.80;3.70;;;;;;;12.71;100.00;98498.75;5031929;28;20174;-57
2022/10/15 02:32:52;;;;;;;4.80;3.83;;;;;;;12.75;100.00;98505.38;5030507;28;20256;-57
2022/10/15 02:35:20;;;;;;;5.13;3.55;;;;;;;12.67;100.00;98501.72;5031994;28;20198;-57
2022/10/15 02:37:51;;;;;;;4.90;4.15;;;;;;;12.65;100.00;98501.81;5032170;28;20178;-57
2022/10/15 02:40:20;;;;;;;6.70;4.45;;;;;;;12.71;100.00;98505.75;5031846;28;20162;-57
2022/10/15 02:42:46;;;;;;;11.38;5.05;;;;;;;12.62;100.00;98496.03;5031759;28;20232;-57
2022/10/15 02:45:11;;;;;;;5.38;4.43;;;;;;;12.56;100.00;98502.53;5031953;28;20560;-57
2022/10/15 02:47:36;;;;;;;11.65;4.35;;;;;;;12.67;100.00;98501.72;5031990;28;20652;-57
2022/10/15 02:50:03;;;;;;;6.03;4.38;;;;;;;12.61;100.00;98499.59;5030424;28;20174;-57
2022/10/15 02:52:28;;;;;;;6.28;4.53;;;;;;;12.61;100.00;98499.59;5031840;28;20201;-57
2022/10/15 02:54:54;;;;;;;5.50;4.50;;;;;;;12.57;100.00;98490.38;5031909;28;20174;-57
2022/10/15 02:57:19;;;;;;;7.63;4.25;;;;;;;12.60;100.00;98503.13;5031679;28;20253;-57
2022/10/15 02:59:44;;;;;;;5.13;4.35;;;;;;;12.48;100.00;98496.25;5031642;28;20190;-57
2022/10/15 03:02:10;;;;;;;7.18;4.57;;;;;;;12.62;100.00;98503.81;5030409;28;20324;-57
2022/10/15 03:04:35;;;;;;;8.57;4.47;;;;;;;12.75;100.00;98494.16;5032676;28;20289;-57
2022/10/15 03:07:00;;;;;;;4.78;4.18;;;;;;;12.62;100.00;98498.63;5035781;28;20197;-57
2022/10/15 03:09:26;;;;;;;8.73;4.45;;;;;;;12.57;100.00;98495.56;5035394;28;20189;-57
2022/10/15 03:11:51;;;;;;;7.50;3.97;;;;;;;12.58;100.00;98502.38;5035341;28;20189;-57
2022/10/15 03:14:17;;;;;;;5.60;4.53;;;;;;;12.52;100.00;98495.06;5035284;28;20257;-57
2022/10/15 03:16:42;;;;;;;5.05;4.47;;;;;;;12.51;100.00;98501.22;5035566;28;20178;-57
2022/10/15 03:19:07;;;;;;;6.72;4.18;;;;;;;12.58;100.00;98497.19;5035820;28;20167;-57
2022/10/15 03:21:33;;;;;;;5.00;3.97;;;;;;;12.44;100.00;98479.25;5035014;28;20182;-57
2022/10/15 03:23:58;;;;;;;5.30;3.30;;;;;;;12.50;100.00;98499.56;5035409;28;20151;-57
2022/10/15 03:26:24;;;;;;;6.43;3.60;;;;;;;12.35;100.00;98495.50;5035076;28;20561;-57
2022/10/15 03:28:50;;;;;;;5.57;3.65;;;;;;;12.45;100.00;98499.06;5035498;28;20666;-57
2022/10/15 03:31:15;;;;;;;3.92;3.63;;;;;;;12.43;100.00;98498.38;5034945;28;20166;-57
2022/10/15 03:33:40;;;;;;;4.72;3.35;;;;;;;12.28;100.00;98500.34;5034876;28;20190;-57
2022/10/15 03:36:06;;;;;;;4.75;3.42;;;;;;;12.32;100.00;98506.13;5034856;28;20206;-57
2022/10/15 03:38:32;;;;;;;4.90;3.53;;;;;;;12.31;100.00;98496.69;5034847;28;20794;-57
2022/10/15 03:40:57;;;;;;;6.10;3.25;;;;;;;12.34;100.00;98499.03;5035122;28;20268;-57
2022/10/15 03:43:24;;;;;;;4.78;3.50;;;;;;;12.45;100.00;98501.66;5034787;28;20174;-57
2022/10/15 03:45:50;;;;;;;5.07;3.00;;;;;;;12.51;100.00;98501.22;5034955;28;20228;-56
2022/10/15 03:48:15;;;;;;;5.93;3.70;;;;;;;12.32;100.00;98504.34;5034953;28;20182;-57
2022/10/15 03:50:41;;;;;;;4.63;3.85;;;;;;;12.17;100.00;98502.88;5033359;28;20209;-57
2022/10/15 03:53:06;;;;;;;4.18;3.70;;;;;;;12.14;100.00;98503.09;5034542;28;20194;-57
2022/10/15 03:55:32;;;;;;;4.60;3.40;;;;;;;12.18;100.00;98503.69;5034623;28;20225;-57
2022/10/15 03:57:58;;;;;;;4.30;3.65;;;;;;;12.28;100.00;98504.69;5034526;28;20721;-57
2022/10/15 04:00:23;;;;;;;5.32;3.45;;;;;;;12.33;100.00;98499.97;5034496;28;20551;-57
2022/10/15 04:02:48;;;;;;;5.65;3.35;;;;;;;12.23;100.00;98501.59;5034426;28;20174;-57
2022/10/15 04:05:14;;;;;;;4.20;3.72;;;;;;;12.21;100.00;98500.88;5034712;28;20170;-57
2022/10/15 04:07:39;;;;;;;4.85;3.65;;;;;;;12.17;100.00;98508.06;5034355;28;20220;-57
2022/10/15 04:10:05;;;;;;;4.45;4.05;;;;;;;12.11;100.00;98505.09;5034324;28;20182;-57
2022/10/15 04:12:30;;;;;;;5.65;3.78;;;;;;;12.22;100.00;98499.94;5034452;28;20194;-57
2022/10/15 04:14:56;;;;;;;4.75;3.67;;;;;;;12.39;100.00;98507.31;5034164;28;20236;-57
2022/10/15 04:17:21;;;;;;;7.75;3.60;;;;;;;12.55;100.00;98502.63;5033933;28;20294;-57
2022/10/15 04:19:47;;;;;;;5.03;3.70;;;;;;;12.45;100.00;98507.69;5034125;28;20170;-56
2022/10/15 04:22:12;;;;;;;4.57;3.53;;;;;;;12.36;100.00;98502.38;5034007;28;20343;-57
2022/10/15 04:24:37;;;;;;;5.07;3.72;;;;;;;12.29;100.00;98501.13;5034130;28;20175;-57
2022/10/15 04:27:03;;;;;;;4.35;3.95;;;;;;;12.39;100.00;98496.94;5032752;28;20283;-57
2022/10/15 04:29:28;;;;;;;6.75;3.90;;;;;;;12.27;100.00;98497.84;5034258;28;20174;-57
2022/10/15 04:31:53;;;;;;;3.67;3.38;;;;;;;12.19;100.00;98501.00;5033801;28;20559;-57
2022/10/15 04:34:19;;;;;;;5.72;3.65;;;;;;;12.11;100.00;98502.50;5033748;28;20640;-57
2022/10/15 04:36:44;;;;;;;3.78;3.47;;;;;;;12.04;100.00;98496.09;5033824;28;20170;-57
2022/10/15 04:39:10;;;;;;;5.47;3.72;;;;;;;11.97;100.00;98495.72;5033970;28;20174;-57
2022/10/15 04:41:35;;;;;;;4.53;3.35;;;;;;;11.89;100.00;98498.03;5033604;28;20190;-57
2022/10/15 04:44:01;;;;;;;4.25;3.85;;;;;;;11.93;100.00;98499.50;5033867;28;20166;-57
2022/10/15 04:46:26;;;;;;;4.30;3.85;;;;;;;11.92;100.00;98502.19;5033596;28;20614;-57
2022/10/15 04:48:56;;;;;;;3.70;3.40;;;;;;;11.97;100.00;98507.88;5033847;28;20737;-57
2022/10/15 04:51:23;;;;;;;4.03;3.58;;;;;;;12.00;100.00;98505.88;5034367;28;20547;-57
2022/10/15 04:53:48;;;;;;;4.63;3.92;;;;;;;11.78;100.00;98498.00;5033353;28;20636;-57
2022/10/15 04:56:16;;;;;;;5.88;3.80;;;;;;;11.66;100.00;98505.81;5032122;28;20183;-57
2022/10/15 04:58:43;;;;;;;4.70;3.92;;;;;;;11.73;100.00;98505.25;5033638;28;20276;-57
2022/10/15 05:01:11;;;;;;;3.80;3.50;;;;;;;11.85;100.00;98511.34;5032062;28;20626;-57
2022/10/15 05:03:37;;;;;;;8.35;3.72;;;;;;;11.98;100.00;98517.31;5033273;28;20171;-57
2022/10/15 05:06:08;;;;;;;7.10;4.10;;;;;;;12.02;100.00;98510.97;5033234;28;20181;-57
2022/10/15 05:08:35;;;;;;;4.68;3.42;;;;;;;12.17;100.00;98517.59;5033409;28;20162;-56
2022/10/15 05:11:05;;;;;;;4.55;3.53;;;;;;;12.07;100.00;98511.47;5033163;28;20194;-57
2022/10/15 05:13:31;;;;;;;3.88;3.58;;;;;;;12.08;100.00;98511.31;5031771;28;20670;-57
2022/10/15 05:16:06;;;;;;;5.22;3.58;;;;;;;11.93;100.00;98516.81;5033049;28;20257;-57
2022/10/15 05:18:32;;;;;;;3.55;3.30;;;;;;;11.93;100.00;98517.63;5033554;28;20561;-57
2022/10/15 05:21:00;;;;;;;5.40;3.80;;;;;;;12.02;100.00;98516.16;5032884;28;20180;-56
2022/10/15 05:23:25;;;;;;;5.55;4.22;;;;;;;12.14;100.00;98520.44;5032751;28;20178;-57
2022/10/15 05:25:51;;;;;;;4.18;3.63;;;;;;;12.01;100.00;98519.69;5032878;28;20611;-57
2022/10/15 05:28:16;;;;;;;4.43;4.03;;;;;;;12.10;100.00;98529.38;5032180;28;20665;-57
2022/10/15 05:30:42;;;;;;;3.78;3.35;;;;;;;12.10;100.00;98511.22;5032794;28;20651;-56
2022/10/15 05:33:07;;;;;;;3.67;3.40;;;;;;;12.15;100.00;98525.53;5032620;28;20190;-57
2022/10/15 05:35:32;;;;;;;3.78;3.38;;;;;;;12.34;100.00;98523.22;5032641;28;20635;-57
2022/10/15 05:37:58;;;;;;;4.25;3.35;;;;;;;12.37;100.00;98535.16;5032882;28;20169;-57
2022/10/15 05:40:23;;;;;;;4.03;3.55;;;;;;;12.45;100.00;98533.66;5032614;28;20620;-57
2022/10/15 05:42:52;;;;;;;4.32;3.83;;;;;;;12.61;100.00;98546.31;5032612;28;20178;-57
2022/10/15 05:45:18;;;;;;;6.10;4.15;;;;;;;12.59;100.00;98546.41;5032781;28;20174;-57
2022/10/15 05:47:43;;;;;;;3.60;3.30;;;;;;;12.50;100.00;98541.09;5032773;28;20556;-57
2022/10/15 05:50:08;;;;;;;6.13;3.38;;;;;;;12.58;100.00;98547.34;5031174;28;20182;-57
2022/10/15 05:52:34;;;;;;;8.05;3.22;;;;;;;12.49;100.00;98534.25;5032610;28;20213;-57
2022/10/15 05:54:59;;;;;;;4.35;3.90;;;;;;;12.57;100.00;98550.91;5031687;28;20181;-57
2022/10/15 05:57:24;;;;;;;5.30;4.10;;;;;;;12.71;100.00;98549.88;5032448;28;20174;-57
2022/10/15 05:59:50;;;;;;;5.18;4.40;;;;;;;12.76;100.00;98558.97;5032575;28;20236;-57
2022/10/15 06:02:15;;;;;;;5.68;4.00;;;;;;;12.84;100.00;98566.19;5032294;28;20166;-57
2022/10/15 06:04:41;;;;;;;4.18;3.60;;;;;;;12.92;100.00;98563.81;5032251;28;20208;-57
2022/10/15 06:07:07;;;;;;;4.68;3.50;;;;;;;13.11;100.00;98569.31;5032500;28;20526;-56
2022/10/15 06:09:32;;;;;;;5.00;3.78;;;;;;;13.15;100.00;98563.78;5032214;28;20227;-58
2022/10/15 06:11:58;;;;;;;7.97;5.20;;;;;;;13.18;100.00;98570.53;5032381;28;20171;-56
2022/10/15 06:14:23;;;;;;;7.05;5.80;;;;;;;13.11;100.00;98575.34;5032369;28;20174;-56
2022/10/15 06:16:49;;;;;;;4.68;4.07;;;;;;;13.13;100.00;98568.25;5032046;28;20232;-57
2022/10/15 06:19:15;;;;;;;4.90;3.83;;;;;;;13.22;100.00;98577.13;5032613;28;20255;-58
2022/10/15 06:21:40;;;;;;;6.40;3.45;;;;;;;13.32;100.00;98578.06;5014242;28;20569;-57
2022/10/15 06:24:06;;;;;;;8.68;3.90;;;;;;;13.40;100.00;98586.09;5032032;28;20173;-57
2022/10/15 06:26:31;;;;;;;9.93;5.65;;;;;;;13.49;100.00;98586.25;5032042;28;20177;-57
2022/10/15 06:28:58;;;;;;;9.77;5.93;;;;;;;13.59;100.00;98594.16;5032002;28;20601;-57
2022/10/15 06:31:24;;;;;;;6.07;3.10;;;;;;;13.62;100.00;98594.75;5031902;28;20170;-57
2022/10/15 06:33:49;;;;;;;3.97;3.22;;;;;;;13.47;100.00;98595.09;5032070;28;20193;-57
2022/10/15 06:36:15;;;;;;;6.82;3.70;;;;;;;13.44;100.00;98598.75;5031780;28;20691;-57
2022/10/15 06:38:42;;;;;;;4.10;3.15;;;;;;;13.45;100.00;98594.38;5032806;28;20182;-57
2022/10/15 06:41:09;;;;;;;4.25;3.95;;;;;;;13.47;100.00;98589.91;5036147;28;20166;-57
2022/10/15 06:43:34;;;;;;;4.97;4.45;;;;;;;13.52;100.00;98595.53;5035850;28;20249;-56
2022/10/15 06:46:00;;;;;;;4.00;3.70;;;;;;;13.61;100.00;98593.09;5035838;28;20803;-57
2022/10/15 06:48:26;;;;;;;6.30;4.30;;;;;;;13.74;100.00;98600.75;5036062;28;20186;-56
2022/10/15 06:50:51;;;;;;;6.05;5.47;;;;;;;13.86;100.00;98602.38;5036078;28;20174;-56
2022/10/15 06:53:17;;;;;;;4.97;4.45;;;;;;;13.96;100.00;98598.13;5035645;28;20186;-57
2022/10/15 06:55:42;;;;;;;4.75;4.13;;;;;;;14.02;100.00;98603.66;5035893;28;20562;-57
2022/10/15 06:58:08;;;;;;;5.63;4.18;;;;;;;14.05;100.00;98605.19;5035874;28;20257;-56
2022/10/15 07:00:34;;;;;;;24.73;21.80;;;;;;;14.12;100.00;98614.16;5035856;28;20174;-57
2022/10/15 07:03:06;;;;;;;14.05;10.02;;;;;;;14.16;100.00;98603.38;5035489;28;20587;-56
2022/10/15 07:05:32;;;;;;;9.32;6.55;;;;;;;14.20;100.00;98604.84;5035463;28;20177;-57
2022/10/15 07:07:58;;;;;;;5.57;4.63;;;;;;;14.32;100.00;98608.22;5035751;28;20228;-56
2022/10/15 07:10:26;;;;;;;8.00;4.80;;;;;;;14.32;100.00;98603.84;5034135;28;20178;-57
2022/10/15 07:12:52;;;;;;;4.47;3.90;;;;;;;14.32;100.00;98601.25;5035497;28;20224;-56
2022/10/15 07:15:18;;;;;;;6.63;3.95;;;;;;;14.45;100.00;98603.66;5035386;28;20179;-57
2022/10/15 07:17:48;;;;;;;4.72;4.20;;;;;;;14.51;100.00;98604.00;5035207;28;20183;-57
2022/10/15 07:20:14;;;;;;;6.03;4.97;;;;;;;14.59;100.00;98611.19;5035471;28;20206;-57
2022/10/15 07:22:39;;;;;;;5.70;4.57;;;;;;;14.70;100.00;98613.75;5035101;28;20210;-57
2022/10/15 07:25:05;;;;;;;4.45;4.00;;;;;;;14.77;100.00;98604.47;5035184;28;20174;-56
2022/10/15 07:27:30;;;;;;;6.82;4.18;;;;;;;14.81;100.00;98605.91;5035032;28;20224;-56
2022/10/15 07:29:56;;;;;;;6.15;3.80;;;;;;;14.80;100.00;98607.66;5035068;28;20731;-56
2022/10/15 07:32:21;;;;;;;4.95;3.78;;;;;;;14.82;100.00;98603.13;5034932;28;20195;-57
2022/10/15 07:34:46;;;;;;;4.18;3.88;;;;;;;14.83;100.00;98609.19;5035164;28;20190;-56
2022/10/15 07:37:12;;;;;;;4.20;3.90;;;;;;;14.64;100.00;98603.84;5034877;28;20573;-56
2022/10/15 07:39:37;;;;;;;6.25;4.07;;;;;;;14.59;100.00;98600.78;5034910;28;20648;-56
2022/10/15 07:42:02;;;;;;;6.38;3.67;;;;;;;14.64;100.00;98598.63;5034888;28;20261;-56
2022/10/15 07:44:28;;;;;;;7.93;4.18;;;;;;;14.70;100.00;98600.72;5035094;28;20167;-56
2022/10/15 07:46:53;;;;;;;4.15;3.70;;;;;;;14.81;100.00;98598.06;5034734;28;20533;-56
2022/10/15 07:49:19;;;;;;;4.82;4.07;;;;;;;14.93;100.00;98602.28;5034748;28;20712;-56
2022/10/15 07:51:44;;;;;;;3.72;3.38;;;;;;;15.02;100.00;98593.66;5034487;28;20181;-56
2022/10/15 07:54:09;;;;;;;3.50;3.20;;;;;;;15.07;100.00;98597.56;5034843;28;20194;-56
2022/10/15 07:56:35;;;;;;;5.88;3.45;;;;;;;15.07;100.00;98594.97;5034598;28;20709;-56
2022/10/15 07:59:00;;;;;;;4.47;3.45;;;;;;;15.23;100.00;98602.31;5034604;28;20173;-57
2022/10/15 08:01:26;;;;;;;4.80;4.05;;;;;;;15.31;100.00;98600.72;5034547;28;20192;-57
2022/10/15 08:03:51;;;;;;;5.50;3.47;;;;;;;15.39;100.00;98605.31;5034512;28;20224;-57
2022/10/15 08:06:18;;;;;;;5.28;3.75;;;;;;;15.49;100.00;98607.00;5034485;28;20253;-57
2022/10/15 08:08:43;;;;;;;8.93;3.53;;;;;;;15.58;100.00;98603.59;5034636;28;20257;-57
2022/10/15 08:11:14;;;;;;;5.00;3.47;;;;;;;15.67;100.00;98607.19;5034615;28;20654;-57
2022/10/15 08:13:41;;;;;;;9.05;3.50;;;;;;;15.70;100.00;98605.19;5034550;28;20194;-57
2022/10/15 08:16:11;;;;;;;3.75;3.42;;;;;;;15.76;100.00;98596.81;5034341;28;20174;-57
2022/10/15 08:18:37;;;;;;;6.13;3.40;;;;;;;15.86;100.00;98604.69;5034563;28;20187;-57
2022/10/15 08:21:05;;;;;;;4.78;3.40;;;;;;;15.92;100.00;98602.34;5034598;28;20214;-57
2022/10/15 08:23:31;;;;;;;4.10;3.50;;;;;;;16.00;100.00;98607.75;5034070;28;20578;-57
2022/10/15 08:25:59;;;;;;;5.22;3.42;;;;;;;16.08;100.00;98614.88;5034337;28;20261;-57
2022/10/15 08:28:27;;;;;;;5.50;3.13;;;;;;;16.19;100.00;98609.53;5032798;28;20178;-57
2022/10/15 08:30:53;;;;;;;4.90;2.65;;;;;;;16.28;100.00;98612.16;5033987;28;20174;-57
2022/10/15 08:33:18;;;;;;;4.20;2.85;;;;;;;16.35;100.00;98615.91;5033889;28;20243;-57
2022/10/15 08:35:43;;;;;;;3.50;3.20;;;;;;;16.41;100.00;98614.56;5032572;28;20332;-57
2022/10/15 08:38:12;;;;;;;9.20;4.03;;;;;;;16.50;100.00;98608.53;5033810;28;20193;-57
2022/10/15 08:40:41;;;;;;;4.72;3.10;;;;;;;16.61;100.00;98614.44;5033814;28;20170;-57
2022/10/15 08:43:36;;;;;;;4.07;3.28;;;;;;;16.73;100.00;98615.94;5034015;28;20177;-57
2022/10/15 08:46:30;;;;;;;5.65;3.35;;;;;;;16.85;100.00;98611.41;5033628;28;20195;-57
2022/10/15 08:48:59;;;;;;;6.90;3.05;;;;;;;16.92;100.00;98625.56;5032466;28;20683;-57
2022/10/15 08:51:37;;;;;;;4.00;2.60;;;;;;;16.99;100.00;98616.19;5033594;28;20181;-57
2022/10/15 08:54:05;;;;;;;5.82;3.05;;;;;;;17.09;100.00;98615.22;5033807;28;20185;-57
2022/10/15 08:56:35;;;;;;;8.65;3.22;;;;;;;17.22;100.00;98630.59;5034050;28;20166;-57
2022/10/15 08:59:30;;;;;;;6.78;2.90;;;;;;;17.28;100.00;98636.09;5033459;28;20173;-57
2022/10/15 09:02:12;;;;;;;4.30;2.60;;;;;;;17.37;99.01;98631.81;5028957;28;20697;-57
2022/10/15 09:05:02;;;;;;;8.20;3.58;;;;;;;17.31;98.11;98635.81;5033661;28;20611;-57
2022/10/15 09:07:42;;;;;;;7.57;3.70;;;;;;;17.07;97.18;98634.59;5033573;28;20227;-57
2022/10/15 09:10:35;;;;;;;12.07;5.22;;;;;;;17.01;96.96;98641.25;5033496;28;20177;-57
2022/10/15 09:13:07;;;;;;;6.07;3.72;;;;;;;17.13;96.95;98644.53;5031902;28;20290;-58
2022/10/15 09:15:40;;;;;;;5.35;3.33;;;;;;;17.22;95.66;98646.28;5033711;28;20177;-57
2022/10/15 09:18:15;;;;;;;6.13;3.20;;;;;;;17.36;93.32;98645.84;5033088;28;20692;-57
2022/10/15 09:20:42;;;;;;;5.65;3.28;;;;;;;17.55;94.13;98645.84;5033026;28;20636;-57
2022/10/15 09:23:18;;;;;;;6.97;3.00;;;;;;;17.68;94.52;98646.34;5032928;28;20186;-57
2022/10/15 09:25:50;;;;;;;4.22;2.90;;;;;;;17.74;91.85;98651.84;5033485;28;20172;-57
2022/10/15 09:28:21;;;;;;;2.97;2.40;;;;;;;17.72;91.56;98645.91;5032932;28;20166;-57
2022/10/15 09:30:50;;;;;;;8.00;3.40;;;;;;;17.72;92.36;98653.75;5033064;28;20192;-57
2022/10/15 09:33:40;;;;;;;3.90;3.15;;;;;;;17.15;91.83;98655.66;5032888;28;20285;-57
2022/10/15 09:36:29;;;;;;;5.35;3.40;;;;;;;17.04;92.96;98650.59;5032994;28;20756;-57
2022/10/15 09:39:03;;;;;;;4.75;2.85;;;;;;;17.08;96.15;98651.97;5033273;28;20249;-58
2022/10/15 09:41:52;;;;;;;4.47;3.13;;;;;;;17.13;92.13;98660.22;5032967;28;20245;-57
2022/10/15 09:44:21;;;;;;;3.28;2.80;;;;;;;17.29;92.43;98647.38;5033167;28;20635;-57
2022/10/15 09:46:48;;;;;;;3.75;2.38;;;;;;;17.58;89.46;98649.00;5032527;28;20231;-58
2022/10/15 09:49:20;;;;;;;36.13;15.10;;;;;;;17.82;86.74;98657.16;5032244;28;20227;-57
2022/10/15 09:51:51;;;;;;;2.42;2.22;;;;;;;18.03;82.67;98656.94;5032817;28;20581;-57
2022/10/15 09:54:24;;;;;;;6.22;3.10;;;;;;;18.00;84.49;98651.97;5032685;28;20197;-57
2022/10/15 09:56:55;;;;;;;4.13;2.60;;;;;;;18.00;85.53;98646.75;5032378;28;20173;-57
2022/10/15 09:59:21;;;;;;;3.88;2.95;;;;;;;17.87;83.27;98647.09;5032334;28;20188;-57
2022/10/15 10:02:00;;;;;;;4.45;2.75;;;;;;;17.61;83.31;98655.75;5032358;28;20174;-57
2022/10/15 10:04:31;;;;;;;4.05;2.60;;;;;;;17.44;83.04;98657.28;5032588;28;20746;-57
2022/10/15 10:07:00;;;;;;;4.13;2.42;;;;;;;17.54;83.96;98652.06;5032570;28;20158;-57
2022/10/15 10:09:31;;;;;;;5.55;3.63;;;;;;;17.56;84.11;98647.50;5032425;28;20273;-57
2022/10/15 10:12:03;;;;;;;4.22;2.15;;;;;;;17.68;81.79;98646.34;5032478;28;20194;-57
2022/10/15 10:14:35;;;;;;;2.42;2.22;;;;;;;17.76;80.45;98649.88;5032035;28;20208;-57
2022/10/15 10:17:04;;;;;;;3.25;2.40;;;;;;;17.87;78.94;98643.63;5032447;28;20173;-58
2022/10/15 10:19:30;;;;;;;2.92;2.65;;;;;;;17.91;79.09;98640.59;5032395;28;20309;-58
2022/10/15 10:22:12;;;;;;;2.75;2.08;;;;;;;17.91;75.68;98643.22;5031965;28;20248;-57
2022/10/15 10:24:38;;;;;;;6.10;2.13;;;;;;;17.81;74.98;98644.22;5015239;28;20197;-57
2022/10/15 10:27:19;;;;;;;4.18;2.47;;;;;;;17.82;66.63;98640.63;5032055;28;20650;-57
2022/10/15 10:29:51;;;;;;;4.07;2.60;;;;;;;17.63;67.68;98638.94;5031988;28;20166;-58
2022/10/15 10:32:22;;;;;;;3.92;2.70;;;;;;;17.61;68.03;98635.59;5032208;28;20165;-57
2022/10/15 10:34:48;;;;;;;6.43;2.53;;;;;;;17.63;69.77;98638.94;5030564;28;20259;-59
2022/10/15 10:37:14;;;;;;;3.10;2.50;;;;;;;17.62;68.82;98631.22;5031933;28;20178;-55
2022/10/15 10:39:42;;;;;;;3.05;2.60;;;;;;;17.64;69.83;98629.25;5032217;28;20217;-56
2022/10/15 10:42:24;;;;;;;6.22;2.63;;;;;;;17.62;70.62;98626.81;5032143;28;20185;-56
2022/10/15 10:44:51;;;;;;;3.13;2.67;;;;;;;17.67;70.24;98627.19;5031866;28;20212;-56
2022/10/15 10:47:20;;;;;;;6.35;3.03;;;;;;;17.50;68.20;98621.91;5031841;28;20178;-56
2022/10/15 10:49:49;;;;;;;3.92;2.63;;;;;;;17.47;69.04;98622.16;5031851;28;20177;-56
2022/10/15 10:52:18;;;;;;;5.32;2.83;;;;;;;17.41;73.55;98618.34;5031990;28;20178;-56
2022/10/15 10:54:43;;;;;;;5.47;4.35;;;;;;;17.51;73.57;98610.47;5032021;28;20303;-56
2022/10/15 10:57:12;;;;;;;4.00;2.83;;;;;;;17.78;72.84;98608.69;5031699;28;20232;-57
2022/10/15 10:59:52;;;;;;;3.05;2.58;;;;;;;18.12;68.04;98607.13;5031761;28;20204;-56
2022/10/15 11:02:18;;;;;;;2.45;2.25;;;;;;;18.35;67.18;98599.69;5032237;28;20656;-57
2022/10/15 11:04:45;;;;;;;3.53;2.35;;;;;;;18.58;65.71;98596.50;5031660;28;20236;-57
2022/10/15 11:07:16;;;;;;;2.85;2.40;;;;;;;18.77;62.62;98603.38;5031945;28;20259;-57
2022/10/15 11:10:05;;;;;;;3.90;2.40;;;;;;;18.77;61.15;98600.75;5031770;28;20174;-57
2022/10/15 11:12:55;;;;;;;2.60;2.40;;;;;;;18.67;60.85;98600.00;5032125;28;20193;-57
2022/10/15 11:15:42;;;;;;;2.40;2.00;;;;;;;18.70;60.31;98600.53;5031840;28;20178;-57
2022/10/15 11:18:14;;;;;;;6.03;2.40;;;;;;;18.83;61.15;98600.16;5031594;28;20620;-57
2022/10/15 11:20:55;;;;;;;1.73;1.63;;;;;;;18.90;60.04;98598.56;5031828;28;20220;-57
2022/10/15 11:23:37;;;;;;;2.58;2.10;;;;;;;19.07;58.47;98597.72;5031354;28;20224;-57
2022/10/15 11:26:23;;;;;;;3.00;2.28;;;;;;;19.16;59.34;98594.97;5031680;28;20197;-57
2022/10/15 11:28:54;;;;;;;2.03;1.77;;;;;;;19.24;57.05;98594.25;5035130;28;20328;-57
2022/10/15 11:31:57;;;;;;;3.42;1.75;;;;;;;19.30;55.28;98602.31;5035394;28;20681;-57
2022/10/15 11:34:49;;;;;;;2.42;2.22;;;;;;;19.28;56.69;98591.16;5035142;28;20217;-57
2022/10/15 11:37:33;;;;;;;2.60;2.20;;;;;;;19.16;55.93;98591.53;5035327;28;20162;-57
2022/10/15 11:40:17;;;;;;;3.15;2.00;;;;;;;18.96;57.01;98580.44;5034969;28;20721;-57